sensor_id;sensor_type;location;lat;lon;timestamp;P1;durP1;ratioP1;P2;durP2;ratioP2
21771;SDS011;11047;47.904;8.110;2024-03-23T00:54:00;2.42;;;1.52;;
21771;SDS011;11047;47.904;8.110;2024-03-23T00:56:28;2.42;;;1.90;;
21771;SDS011;11047;47.904;8.110;2024-03-23T00:58:54;4.85;;;2.28;;
21771;SDS011;11047;47.904;8.110;2024-03-23T01:01:21;3.83;;;2.88;;
21771;SDS011;11047;47.904;8.110;2024-03-23T01:03:47;2.83;;;2.03;;
21771;SDS011;11047;47.904;8.110;2024-03-23T01:06:14;2.83;;;2.40;;
21771;SDS011;11047;47.904;8.110;2024-03-23T01:08:40;3.88;;;2.13;;
21771;SDS011;11047;47.904;8.110;2024-03-23T01:11:08;4.03;;;2.25;;
21771;SDS011;11047;47.904;8.110;2024-03-23T01:13:34;3.00;;;2.03;;
21771;SDS011;11047;47.904;8.110;2024-03-23T01:16:01;3.50;;;2.25;;
21771;SDS011;11047;47.904;8.110;2024-03-23T01:18:27;2.33;;;1.95;;
21771;SDS011;11047;47.904;8.110;2024-03-23T01:20:54;2.28;;;1.73;;
21771;SDS011;11047;47.904;8.110;2024-03-23T01:23:20;2.53;;;2.00;;
21771;SDS011;11047;47.904;8.110;2024-03-23T01:25:51;1.92;;;1.83;;
21771;SDS011;11047;47.904;8.110;2024-03-23T01:28:19;5.47;;;2.20;;
21771;SDS011;11047;47.904;8.110;2024-03-23T01:30:46;6.40;;;2.47;;
21771;SDS011;11047;47.904;8.110;2024-03-23T01:33:12;3.70;;;2.60;;
21771;SDS011;11047;47.904;8.110;2024-03-23T01:35:39;5.28;;;2.50;;
21771;SDS011;11047;47.904;8.110;2024-03-23T01:38:05;4.15;;;2.60;;
21771;SDS011;11047;47.904;8.110;2024-03-23T01:40:32;3.65;;;2.83;;
21771;SDS011;11047;47.904;8.110;2024-03-23T01:42:58;4.47;;;3.25;;
21771;SDS011;11047;47.904;8.110;2024-03-23T01:45:30;7.88;;;3.00;;
21771;SDS011;11047;47.904;8.110;2024-03-23T01:47:57;6.20;;;2.63;;
21771;SDS011;11047;47.904;8.110;2024-03-23T01:50:24;4.15;;;3.20;;
21771;SDS011;11047;47.904;8.110;2024-03-23T01:52:50;3.40;;;2.67;;
21771;SDS011;11047;47.904;8.110;2024-03-23T01:55:17;4.10;;;2.70;;
21771;SDS011;11047;47.904;8.110;2024-03-23T01:57:43;3.85;;;2.45;;
21771;SDS011;11047;47.904;8.110;2024-03-23T02:00:10;5.00;;;2.58;;
21771;SDS011;11047;47.904;8.110;2024-03-23T02:02:41;4.07;;;2.15;;
21771;SDS011;11047;47.904;8.110;2024-03-23T02:05:09;3.55;;;2.83;;
21771;SDS011;11047;47.904;8.110;2024-03-23T02:07:35;3.00;;;2.25;;
21771;SDS011;11047;47.904;8.110;2024-03-23T02:10:04;3.30;;;2.75;;
21771;SDS011;11047;47.904;8.110;2024-03-23T02:12:31;3.53;;;2.95;;
21771;SDS011;11047;47.904;8.110;2024-03-23T02:14:58;3.97;;;2.35;;
21771;SDS011;11047;47.904;8.110;2024-03-23T02:17:24;2.88;;;2.58;;
21771;SDS011;11047;47.904;8.110;2024-03-23T02:19:52;3.30;;;2.22;;
21771;SDS011;11047;47.904;8.110;2024-03-23T02:22:18;5.97;;;2.92;;
21771;SDS011;11047;47.904;8.110;2024-03-23T02:24:46;6.25;;;3.30;;
21771;SDS011;11047;47.904;8.110;2024-03-23T02:27:12;4.03;;;3.25;;
21771;SDS011;11047;47.904;8.110;2024-03-23T02:29:40;6.35;;;3.45;;
21771;SDS011;11047;47.904;8.110;2024-03-23T02:32:06;11.48;;;2.90;;
21771;SDS011;11047;47.904;8.110;2024-03-23T02:34:34;8.93;;;2.60;;
21771;SDS011;11047;47.904;8.110;2024-03-23T02:37:00;6.40;;;2.45;;
21771;SDS011;11047;47.904;8.110;2024-03-23T02:39:27;4.63;;;2.80;;
21771;SDS011;11047;47.904;8.110;2024-03-23T02:41:54;2.80;;;1.90;;
21771;SDS011;11047;47.904;8.110;2024-03-23T02:44:21;3.45;;;1.80;;
21771;SDS011;11047;47.904;8.110;2024-03-23T02:46:47;4.30;;;2.15;;
21771;SDS011;11047;47.904;8.110;2024-03-23T02:49:14;4.95;;;2.42;;
21771;SDS011;11047;47.904;8.110;2024-03-23T02:51:39;3.20;;;1.88;;
21771;SDS011;11047;47.904;8.110;2024-03-23T02:54:07;5.05;;;2.00;;
21771;SDS011;11047;47.904;8.110;2024-03-23T02:56:33;3.47;;;2.90;;
21771;SDS011;11047;47.904;8.110;2024-03-23T02:59:01;4.20;;;2.47;;
21771;SDS011;11047;47.904;8.110;2024-03-23T03:01:27;3.42;;;1.85;;
21771;SDS011;11047;47.904;8.110;2024-03-23T03:03:54;3.80;;;2.58;;
21771;SDS011;11047;47.904;8.110;2024-03-23T03:06:23;4.47;;;2.20;;
21771;SDS011;11047;47.904;8.110;2024-03-23T03:08:50;4.95;;;2.05;;
21771;SDS011;11047;47.904;8.110;2024-03-23T03:11:16;4.03;;;2.30;;
21771;SDS011;11047;47.904;8.110;2024-03-23T03:13:43;3.50;;;1.95;;
21771;SDS011;11047;47.904;8.110;2024-03-23T03:16:10;3.00;;;1.88;;
21771;SDS011;11047;47.904;8.110;2024-03-23T03:18:38;4.18;;;2.08;;
21771;SDS011;11047;47.904;8.110;2024-03-23T03:21:04;4.63;;;2.50;;
21771;SDS011;11047;47.904;8.110;2024-03-23T03:23:35;4.45;;;2.10;;
21771;SDS011;11047;47.904;8.110;2024-03-23T03:26:01;6.63;;;2.20;;
21771;SDS011;11047;47.904;8.110;2024-03-23T03:28:28;4.85;;;2.28;;
21771;SDS011;11047;47.904;8.110;2024-03-23T03:30:55;4.15;;;2.63;;
21771;SDS011;11047;47.904;8.110;2024-03-23T03:33:24;5.47;;;2.42;;
21771;SDS011;11047;47.904;8.110;2024-03-23T03:35:49;4.63;;;2.08;;
21771;SDS011;11047;47.904;8.110;2024-03-23T03:38:18;4.95;;;2.38;;
21771;SDS011;11047;47.904;8.110;2024-03-23T03:40:44;4.95;;;1.90;;
21771;SDS011;11047;47.904;8.110;2024-03-23T03:43:11;6.65;;;2.67;;
21771;SDS011;11047;47.904;8.110;2024-03-23T03:45:37;3.95;;;2.38;;
21771;SDS011;11047;47.904;8.110;2024-03-23T03:48:04;8.20;;;2.67;;
21771;SDS011;11047;47.904;8.110;2024-03-23T03:50:32;4.30;;;2.17;;
21771;SDS011;11047;47.904;8.110;2024-03-23T03:52:58;4.18;;;2.70;;
21771;SDS011;11047;47.904;8.110;2024-03-23T03:55:24;2.63;;;2.22;;
21771;SDS011;11047;47.904;8.110;2024-03-23T03:57:51;3.58;;;2.53;;
21771;SDS011;11047;47.904;8.110;2024-03-23T04:00:17;3.20;;;2.83;;
21771;SDS011;11047;47.904;8.110;2024-03-23T04:02:44;2.50;;;2.30;;
21771;SDS011;11047;47.904;8.110;2024-03-23T04:05:10;5.90;;;2.42;;
21771;SDS011;11047;47.904;8.110;2024-03-23T04:07:39;5.25;;;2.63;;
21771;SDS011;11047;47.904;8.110;2024-03-23T04:10:05;2.80;;;2.38;;
21771;SDS011;11047;47.904;8.110;2024-03-23T04:12:33;5.63;;;2.90;;
21771;SDS011;11047;47.904;8.110;2024-03-23T04:14:59;5.70;;;2.40;;
21771;SDS011;11047;47.904;8.110;2024-03-23T04:17:28;2.75;;;1.92;;
21771;SDS011;11047;47.904;8.110;2024-03-23T04:19:57;4.57;;;3.22;;
21771;SDS011;11047;47.904;8.110;2024-03-23T04:22:24;5.80;;;2.42;;
21771;SDS011;11047;47.904;8.110;2024-03-23T04:24:52;6.43;;;2.83;;
21771;SDS011;11047;47.904;8.110;2024-03-23T04:27:19;3.65;;;2.55;;
21771;SDS011;11047;47.904;8.110;2024-03-23T04:29:46;4.50;;;2.75;;
21771;SDS011;11047;47.904;8.110;2024-03-23T04:32:14;7.15;;;3.35;;
21771;SDS011;11047;47.904;8.110;2024-03-23T04:34:41;7.50;;;2.53;;
21771;SDS011;11047;47.904;8.110;2024-03-23T04:37:06;17.17;;;4.78;;
21771;SDS011;11047;47.904;8.110;2024-03-23T04:39:33;7.10;;;3.00;;
21771;SDS011;11047;47.904;8.110;2024-03-23T04:42:02;5.88;;;2.78;;
21771;SDS011;11047;47.904;8.110;2024-03-23T04:44:29;2.80;;;2.42;;
21771;SDS011;11047;47.904;8.110;2024-03-23T04:46:56;3.13;;;2.45;;
21771;SDS011;11047;47.904;8.110;2024-03-23T04:49:23;4.40;;;2.45;;
21771;SDS011;11047;47.904;8.110;2024-03-23T04:51:50;5.10;;;2.70;;
21771;SDS011;11047;47.904;8.110;2024-03-23T04:54:17;3.55;;;2.70;;
21771;SDS011;11047;47.904;8.110;2024-03-23T04:56:44;6.60;;;3.20;;
21771;SDS011;11047;47.904;8.110;2024-03-23T04:59:13;6.22;;;3.40;;
21771;SDS011;11047;47.904;8.110;2024-03-23T05:01:38;5.38;;;3.83;;
21771;SDS011;11047;47.904;8.110;2024-03-23T05:04:07;4.25;;;3.35;;
21771;SDS011;11047;47.904;8.110;2024-03-23T05:06:33;3.28;;;2.97;;
21771;SDS011;11047;47.904;8.110;2024-03-23T05:09:00;6.57;;;3.47;;
21771;SDS011;11047;47.904;8.110;2024-03-23T05:11:28;5.03;;;3.90;;
21771;SDS011;11047;47.904;8.110;2024-03-23T05:13:55;4.72;;;3.65;;
21771;SDS011;11047;47.904;8.110;2024-03-23T05:16:23;7.60;;;4.45;;
21771;SDS011;11047;47.904;8.110;2024-03-23T05:18:49;8.00;;;4.63;;
21771;SDS011;11047;47.904;8.110;2024-03-23T05:21:15;6.55;;;5.22;;
21771;SDS011;11047;47.904;8.110;2024-03-23T05:23:41;5.97;;;4.93;;
21771;SDS011;11047;47.904;8.110;2024-03-23T05:26:09;6.75;;;4.65;;
21771;SDS011;11047;47.904;8.110;2024-03-23T05:28:35;7.32;;;5.30;;
21771;SDS011;11047;47.904;8.110;2024-03-23T05:31:02;5.07;;;3.90;;
21771;SDS011;11047;47.904;8.110;2024-03-23T05:33:30;5.10;;;4.03;;
21771;SDS011;11047;47.904;8.110;2024-03-23T05:35:57;6.30;;;4.55;;
21771;SDS011;11047;47.904;8.110;2024-03-23T05:38:23;4.93;;;4.15;;
21771;SDS011;11047;47.904;8.110;2024-03-23T05:40:53;4.95;;;4.32;;
21771;SDS011;11047;47.904;8.110;2024-03-23T05:43:20;8.20;;;4.43;;
21771;SDS011;11047;47.904;8.110;2024-03-23T05:45:52;4.05;;;3.30;;
21771;SDS011;11047;47.904;8.110;2024-03-23T05:48:18;4.63;;;3.25;;
21771;SDS011;11047;47.904;8.110;2024-03-23T05:50:46;6.15;;;3.33;;
21771;SDS011;11047;47.904;8.110;2024-03-23T05:53:12;3.65;;;3.28;;
21771;SDS011;11047;47.904;8.110;2024-03-23T05:55:40;4.45;;;3.40;;
21771;SDS011;11047;47.904;8.110;2024-03-23T05:58:06;4.05;;;3.50;;
21771;SDS011;11047;47.904;8.110;2024-03-23T06:00:33;3.90;;;3.30;;
21771;SDS011;11047;47.904;8.110;2024-03-23T06:02:59;4.70;;;3.10;;
21771;SDS011;11047;47.904;8.110;2024-03-23T06:05:26;4.05;;;3.47;;
21771;SDS011;11047;47.904;8.110;2024-03-23T06:07:54;5.72;;;3.67;;
21771;SDS011;11047;47.904;8.110;2024-03-23T06:10:20;3.90;;;3.40;;
21771;SDS011;11047;47.904;8.110;2024-03-23T06:12:46;5.43;;;3.25;;
21771;SDS011;11047;47.904;8.110;2024-03-23T06:15:14;3.85;;;3.20;;
21771;SDS011;11047;47.904;8.110;2024-03-23T06:17:40;5.10;;;3.40;;
21771;SDS011;11047;47.904;8.110;2024-03-23T06:20:07;4.55;;;3.17;;
21771;SDS011;11047;47.904;8.110;2024-03-23T06:22:35;5.63;;;3.15;;
21771;SDS011;11047;47.904;8.110;2024-03-23T06:25:03;5.75;;;4.00;;
21771;SDS011;11047;47.904;8.110;2024-03-23T06:27:29;8.15;;;4.07;;
21771;SDS011;11047;47.904;8.110;2024-03-23T06:29:57;4.35;;;3.80;;
21771;SDS011;11047;47.904;8.110;2024-03-23T06:32:24;4.88;;;3.92;;
21771;SDS011;11047;47.904;8.110;2024-03-23T06:34:49;4.53;;;4.13;;
21771;SDS011;11047;47.904;8.110;2024-03-23T06:37:16;5.80;;;4.97;;
21771;SDS011;11047;47.904;8.110;2024-03-23T06:39:42;6.63;;;5.25;;
21771;SDS011;11047;47.904;8.110;2024-03-23T06:42:13;6.00;;;5.40;;
21771;SDS011;11047;47.904;8.110;2024-03-23T06:44:38;4.45;;;3.78;;
21771;SDS011;11047;47.904;8.110;2024-03-23T06:47:05;7.20;;;4.00;;
21771;SDS011;11047;47.904;8.110;2024-03-23T06:49:31;4.63;;;2.90;;
21771;SDS011;11047;47.904;8.110;2024-03-23T06:51:58;4.90;;;2.70;;
21771;SDS011;11047;47.904;8.110;2024-03-23T06:54:24;4.20;;;2.40;;
21771;SDS011;11047;47.904;8.110;2024-03-23T06:56:51;2.50;;;2.22;;
21771;SDS011;11047;47.904;8.110;2024-03-23T06:59:18;1.88;;;1.50;;
21771;SDS011;11047;47.904;8.110;2024-03-23T07:01:45;2.08;;;1.85;;
21771;SDS011;11047;47.904;8.110;2024-03-23T07:04:11;2.50;;;1.52;;
21771;SDS011;11047;47.904;8.110;2024-03-23T07:06:42;1.52;;;1.30;;
21771;SDS011;11047;47.904;8.110;2024-03-23T07:09:08;1.20;;;1.10;;
21771;SDS011;11047;47.904;8.110;2024-03-23T07:11:35;3.03;;;1.20;;
21771;SDS011;11047;47.904;8.110;2024-03-23T07:14:01;0.90;;;0.80;;
21771;SDS011;11047;47.904;8.110;2024-03-23T07:16:30;2.30;;;1.27;;
21771;SDS011;11047;47.904;8.110;2024-03-23T07:18:56;1.48;;;0.80;;
21771;SDS011;11047;47.904;8.110;2024-03-23T07:21:23;0.52;;;0.52;;
21771;SDS011;11047;47.904;8.110;2024-03-23T07:23:49;1.85;;;1.10;;
21771;SDS011;11047;47.904;8.110;2024-03-23T07:26:16;2.20;;;1.20;;
21771;SDS011;11047;47.904;8.110;2024-03-23T07:28:43;0.52;;;0.52;;
21771;SDS011;11047;47.904;8.110;2024-03-23T07:31:11;0.95;;;0.80;;
21771;SDS011;11047;47.904;8.110;2024-03-23T07:33:42;0.90;;;0.80;;
21771;SDS011;11047;47.904;8.110;2024-03-23T07:36:11;0.70;;;0.70;;
21771;SDS011;11047;47.904;8.110;2024-03-23T07:38:37;0.50;;;0.50;;
21771;SDS011;11047;47.904;8.110;2024-03-23T07:41:06;0.73;;;0.60;;
21771;SDS011;11047;47.904;8.110;2024-03-23T07:43:34;1.30;;;0.65;;
21771;SDS011;11047;47.904;8.110;2024-03-23T07:46:01;0.77;;;0.63;;
21771;SDS011;11047;47.904;8.110;2024-03-23T07:48:28;1.48;;;1.30;;
21771;SDS011;11047;47.904;8.110;2024-03-23T07:50:59;1.30;;;1.20;;
21771;SDS011;11047;47.904;8.110;2024-03-23T07:53:28;2.15;;;1.17;;
21771;SDS011;11047;47.904;8.110;2024-03-23T07:55:54;1.10;;;1.00;;
21771;SDS011;11047;47.904;8.110;2024-03-23T07:58:24;1.30;;;0.80;;
21771;SDS011;11047;47.904;8.110;2024-03-23T08:00:50;1.10;;;0.90;;
21771;SDS011;11047;47.904;8.110;2024-03-23T08:03:17;1.88;;;0.88;;
21771;SDS011;11047;47.904;8.110;2024-03-23T08:05:43;0.50;;;0.50;;
21771;SDS011;11047;47.904;8.110;2024-03-23T08:08:11;0.85;;;0.82;;
21771;SDS011;11047;47.904;8.110;2024-03-23T08:10:37;1.60;;;0.98;;
21771;SDS011;11047;47.904;8.110;2024-03-23T08:13:12;1.80;;;1.33;;
21771;SDS011;11047;47.904;8.110;2024-03-23T08:15:38;1.00;;;0.90;;
21771;SDS011;11047;47.904;8.110;2024-03-23T08:18:05;1.42;;;1.30;;
21771;SDS011;11047;47.904;8.110;2024-03-23T08:20:31;1.40;;;1.30;;
21771;SDS011;11047;47.904;8.110;2024-03-23T08:22:58;1.77;;;0.80;;
21771;SDS011;11047;47.904;8.110;2024-03-23T08:25:25;1.45;;;0.90;;
21771;SDS011;11047;47.904;8.110;2024-03-23T08:27:52;1.48;;;1.05;;
21771;SDS011;11047;47.904;8.110;2024-03-23T08:30:18;3.95;;;1.05;;
21771;SDS011;11047;47.904;8.110;2024-03-23T08:32:45;1.02;;;0.70;;
21771;SDS011;11047;47.904;8.110;2024-03-23T08:35:11;1.33;;;1.10;;
21771;SDS011;11047;47.904;8.110;2024-03-23T08:37:38;4.25;;;1.20;;
21771;SDS011;11047;47.904;8.110;2024-03-23T08:40:04;1.77;;;0.95;;
21771;SDS011;11047;47.904;8.110;2024-03-23T08:42:34;3.10;;;1.10;;
21771;SDS011;11047;47.904;8.110;2024-03-23T08:45:00;3.58;;;1.27;;
21771;SDS011;11047;47.904;8.110;2024-03-23T08:47:27;3.30;;;1.10;;
21771;SDS011;11047;47.904;8.110;2024-03-23T08:49:53;3.10;;;1.20;;
21771;SDS011;11047;47.904;8.110;2024-03-23T08:52:20;1.90;;;1.02;;
21771;SDS011;11047;47.904;8.110;2024-03-23T08:54:48;4.78;;;1.35;;
21771;SDS011;11047;47.904;8.110;2024-03-23T08:57:15;3.88;;;1.70;;
21771;SDS011;11047;47.904;8.110;2024-03-23T08:59:42;5.47;;;1.92;;
21771;SDS011;11047;47.904;8.110;2024-03-23T09:02:09;4.70;;;1.23;;
21771;SDS011;11047;47.904;8.110;2024-03-23T09:04:35;2.60;;;2.00;;
21771;SDS011;11047;47.904;8.110;2024-03-23T09:07:02;3.65;;;1.40;;
21771;SDS011;11047;47.904;8.110;2024-03-23T09:09:28;3.08;;;1.85;;
21771;SDS011;11047;47.904;8.110;2024-03-23T09:11:54;4.82;;;1.88;;
21771;SDS011;11047;47.904;8.110;2024-03-23T09:14:21;5.28;;;1.70;;
21771;SDS011;11047;47.904;8.110;2024-03-23T09:16:50;3.55;;;1.58;;
21771;SDS011;11047;47.904;8.110;2024-03-23T09:19:16;6.13;;;2.63;;
21771;SDS011;11047;47.904;8.110;2024-03-23T09:21:44;5.88;;;2.30;;
21771;SDS011;11047;47.904;8.110;2024-03-23T09:24:09;7.28;;;2.70;;
21771;SDS011;11047;47.904;8.110;2024-03-23T09:26:36;8.77;;;2.90;;
21771;SDS011;11047;47.904;8.110;2024-03-23T09:29:02;4.75;;;2.60;;
21771;SDS011;11047;47.904;8.110;2024-03-23T09:31:29;6.78;;;3.00;;
21771;SDS011;11047;47.904;8.110;2024-03-23T09:33:58;15.15;;;3.03;;
21771;SDS011;11047;47.904;8.110;2024-03-23T09:36:24;11.75;;;4.55;;
21771;SDS011;11047;47.904;8.110;2024-03-23T09:38:50;7.85;;;3.17;;
21771;SDS011;11047;47.904;8.110;2024-03-23T09:41:17;6.80;;;2.67;;
21771;SDS011;11047;47.904;8.110;2024-03-23T09:43:43;11.60;;;3.88;;
21771;SDS011;11047;47.904;8.110;2024-03-23T09:46:11;7.55;;;2.92;;
21771;SDS011;11047;47.904;8.110;2024-03-23T09:48:37;9.55;;;3.25;;
21771;SDS011;11047;47.904;8.110;2024-03-23T09:51:05;8.93;;;3.05;;
21771;SDS011;11047;47.904;8.110;2024-03-23T09:53:34;4.68;;;2.70;;
21771;SDS011;11047;47.904;8.110;2024-03-23T09:56:01;6.80;;;3.05;;
21771;SDS011;11047;47.904;8.110;2024-03-23T09:58:27;5.40;;;2.80;;
21771;SDS011;11047;47.904;8.110;2024-03-23T10:00:54;7.30;;;2.30;;
21771;SDS011;11047;47.904;8.110;2024-03-23T10:03:20;9.27;;;2.78;;
21771;SDS011;11047;47.904;8.110;2024-03-23T10:05:47;7.47;;;2.65;;
21771;SDS011;11047;47.904;8.110;2024-03-23T10:08:29;6.20;;;3.22;;
21771;SDS011;11047;47.904;8.110;2024-03-23T10:10:58;8.05;;;2.95;;
21771;SDS011;11047;47.904;8.110;2024-03-23T10:13:38;12.30;;;3.67;;
21771;SDS011;11047;47.904;8.110;2024-03-23T10:16:08;9.57;;;2.97;;
21771;SDS011;11047;47.904;8.110;2024-03-23T10:18:36;9.40;;;2.80;;
21771;SDS011;11047;47.904;8.110;2024-03-23T10:21:07;5.88;;;2.30;;
21771;SDS011;11047;47.904;8.110;2024-03-23T10:23:37;5.35;;;1.85;;
21771;SDS011;11047;47.904;8.110;2024-03-23T10:26:12;4.43;;;1.88;;
21771;SDS011;11047;47.904;8.110;2024-03-23T10:28:50;7.32;;;2.10;;
21771;SDS011;11047;47.904;8.110;2024-03-23T10:31:22;4.47;;;2.03;;
21771;SDS011;11047;47.904;8.110;2024-03-23T10:33:49;6.35;;;2.83;;
21771;SDS011;11047;47.904;8.110;2024-03-23T10:36:18;4.32;;;2.13;;
21771;SDS011;11047;47.904;8.110;2024-03-23T10:38:47;7.22;;;2.92;;
21771;SDS011;11047;47.904;8.110;2024-03-23T10:41:15;7.70;;;2.10;;
21771;SDS011;11047;47.904;8.110;2024-03-23T10:43:41;6.78;;;2.33;;
21771;SDS011;11047;47.904;8.110;2024-03-23T10:46:11;8.82;;;3.97;;
21771;SDS011;11047;47.904;8.110;2024-03-23T10:48:37;5.70;;;3.10;;
21771;SDS011;11047;47.904;8.110;2024-03-23T10:51:04;6.68;;;3.55;;
21771;SDS011;11047;47.904;8.110;2024-03-23T10:53:32;11.43;;;3.63;;
21771;SDS011;11047;47.904;8.110;2024-03-23T10:56:03;8.90;;;2.70;;
21771;SDS011;11047;47.904;8.110;2024-03-23T10:58:31;6.65;;;2.92;;
21771;SDS011;11047;47.904;8.110;2024-03-23T11:01:00;7.80;;;2.70;;
21771;SDS011;11047;47.904;8.110;2024-03-23T11:03:32;10.88;;;3.45;;
21771;SDS011;11047;47.904;8.110;2024-03-23T11:06:01;6.05;;;2.75;;
21771;SDS011;11047;47.904;8.110;2024-03-23T11:08:34;7.47;;;3.63;;
21771;SDS011;11047;47.904;8.110;2024-03-23T11:11:16;5.07;;;2.10;;
21771;SDS011;11047;47.904;8.110;2024-03-23T11:13:43;4.28;;;1.83;;
21771;SDS011;11047;47.904;8.110;2024-03-23T11:16:21;4.53;;;2.25;;
21771;SDS011;11047;47.904;8.110;2024-03-23T11:18:48;1.98;;;1.40;;
21771;SDS011;11047;47.904;8.110;2024-03-23T11:24:17;2.65;;;1.15;;
21771;SDS011;11047;47.904;8.110;2024-03-23T11:26:46;4.00;;;2.10;;
21771;SDS011;11047;47.904;8.110;2024-03-23T11:29:14;2.08;;;1.30;;
21771;SDS011;11047;47.904;8.110;2024-03-23T11:31:46;2.30;;;1.45;;
21771;SDS011;11047;47.904;8.110;2024-03-23T11:34:12;1.83;;;1.20;;
21771;SDS011;11047;47.904;8.110;2024-03-23T11:36:39;2.47;;;1.30;;
21771;SDS011;11047;47.904;8.110;2024-03-23T11:39:11;4.65;;;1.92;;
21771;SDS011;11047;47.904;8.110;2024-03-23T11:41:48;3.72;;;2.13;;
21771;SDS011;11047;47.904;8.110;2024-03-23T11:44:15;3.03;;;2.35;;
21771;SDS011;11047;47.904;8.110;2024-03-23T11:46:43;5.47;;;1.92;;
21771;SDS011;11047;47.904;8.110;2024-03-23T11:49:19;4.70;;;1.80;;
21771;SDS011;11047;47.904;8.110;2024-03-23T11:51:49;4.82;;;2.03;;
21771;SDS011;11047;47.904;8.110;2024-03-23T11:54:15;8.18;;;2.40;;
21771;SDS011;11047;47.904;8.110;2024-03-23T11:56:54;2.22;;;1.42;;
21771;SDS011;11047;47.904;8.110;2024-03-23T11:59:33;3.65;;;2.17;;
21771;SDS011;11047;47.904;8.110;2024-03-23T12:02:05;6.30;;;1.85;;
21771;SDS011;11047;47.904;8.110;2024-03-23T12:04:31;2.05;;;1.20;;
21771;SDS011;11047;47.904;8.110;2024-03-23T12:07:11;3.20;;;1.60;;
21771;SDS011;11047;47.904;8.110;2024-03-23T12:09:37;4.68;;;1.95;;
21771;SDS011;11047;47.904;8.110;2024-03-23T12:12:11;5.00;;;1.90;;
21771;SDS011;11047;47.904;8.110;2024-03-23T12:14:40;3.30;;;1.45;;
21771;SDS011;11047;47.904;8.110;2024-03-23T12:17:07;5.05;;;1.83;;
21771;SDS011;11047;47.904;8.110;2024-03-23T12:19:34;2.60;;;1.55;;
21771;SDS011;11047;47.904;8.110;2024-03-23T12:22:02;8.75;;;2.20;;
21771;SDS011;11047;47.904;8.110;2024-03-23T12:24:28;3.88;;;1.65;;
21771;SDS011;11047;47.904;8.110;2024-03-23T12:26:59;5.78;;;1.58;;
21771;SDS011;11047;47.904;8.110;2024-03-23T12:29:28;4.78;;;1.98;;
21771;SDS011;11047;47.904;8.110;2024-03-23T12:31:56;4.57;;;1.70;;
21771;SDS011;11047;47.904;8.110;2024-03-23T12:34:24;6.70;;;1.80;;
21771;SDS011;11047;47.904;8.110;2024-03-23T12:36:51;4.32;;;1.98;;
21771;SDS011;11047;47.904;8.110;2024-03-23T12:39:17;6.35;;;2.10;;
21771;SDS011;11047;47.904;8.110;2024-03-23T12:41:45;3.95;;;1.70;;
21771;SDS011;11047;47.904;8.110;2024-03-23T12:44:11;4.22;;;1.52;;
21771;SDS011;11047;47.904;8.110;2024-03-23T12:46:40;7.75;;;2.03;;
21771;SDS011;11047;47.904;8.110;2024-03-23T12:49:06;6.20;;;1.88;;
21771;SDS011;11047;47.904;8.110;2024-03-23T12:51:33;4.35;;;1.73;;
21771;SDS011;11047;47.904;8.110;2024-03-23T12:53:59;5.32;;;1.50;;
21771;SDS011;11047;47.904;8.110;2024-03-23T12:56:26;6.32;;;1.70;;
21771;SDS011;11047;47.904;8.110;2024-03-23T12:58:53;5.22;;;1.33;;
21771;SDS011;11047;47.904;8.110;2024-03-23T13:01:22;5.35;;;1.90;;
21771;SDS011;11047;47.904;8.110;2024-03-23T13:03:49;7.13;;;2.00;;
21771;SDS011;11047;47.904;8.110;2024-03-23T13:06:16;5.63;;;1.75;;
21771;SDS011;11047;47.904;8.110;2024-03-23T13:08:43;4.75;;;2.00;;
21771;SDS011;11047;47.904;8.110;2024-03-23T13:11:11;5.53;;;2.95;;
21771;SDS011;11047;47.904;8.110;2024-03-23T13:13:38;6.53;;;2.15;;
21771;SDS011;11047;47.904;8.110;2024-03-23T13:16:05;5.25;;;1.95;;
21771;SDS011;11047;47.904;8.110;2024-03-23T13:18:31;4.85;;;1.58;;
21771;SDS011;11047;47.904;8.110;2024-03-23T13:21:00;6.25;;;1.58;;
21771;SDS011;11047;47.904;8.110;2024-03-23T13:23:25;4.30;;;1.90;;
21771;SDS011;11047;47.904;8.110;2024-03-23T13:25:53;4.35;;;1.30;;
21771;SDS011;11047;47.904;8.110;2024-03-23T13:28:19;4.93;;;1.52;;
21771;SDS011;11047;47.904;8.110;2024-03-23T13:30:50;5.70;;;1.42;;
21771;SDS011;11047;47.904;8.110;2024-03-23T13:33:17;4.43;;;1.90;;
21771;SDS011;11047;47.904;8.110;2024-03-23T13:35:50;7.68;;;2.17;;
21771;SDS011;11047;47.904;8.110;2024-03-23T13:38:17;8.60;;;1.67;;
21771;SDS011;11047;47.904;8.110;2024-03-23T13:40:51;5.57;;;2.22;;
21771;SDS011;11047;47.904;8.110;2024-03-23T13:43:18;5.00;;;2.38;;
21771;SDS011;11047;47.904;8.110;2024-03-23T13:45:45;6.00;;;2.05;;
21771;SDS011;11047;47.904;8.110;2024-03-23T13:48:11;5.63;;;1.45;;
21771;SDS011;11047;47.904;8.110;2024-03-23T13:50:38;7.38;;;1.83;;
21771;SDS011;11047;47.904;8.110;2024-03-23T13:53:04;5.40;;;1.67;;
21771;SDS011;11047;47.904;8.110;2024-03-23T13:55:34;7.88;;;1.52;;
21771;SDS011;11047;47.904;8.110;2024-03-23T13:58:01;4.25;;;1.40;;
21771;SDS011;11047;47.904;8.110;2024-03-23T14:00:27;4.32;;;1.80;;
21771;SDS011;11047;47.904;8.110;2024-03-23T14:02:53;5.07;;;1.42;;
21771;SDS011;11047;47.904;8.110;2024-03-23T14:05:20;6.93;;;1.60;;
21771;SDS011;11047;47.904;8.110;2024-03-23T14:07:46;3.53;;;1.27;;
21771;SDS011;11047;47.904;8.110;2024-03-23T14:10:14;4.75;;;1.40;;
21771;SDS011;11047;47.904;8.110;2024-03-23T14:12:41;7.22;;;1.73;;
21771;SDS011;11047;47.904;8.110;2024-03-23T14:15:08;6.22;;;2.33;;
21771;SDS011;11047;47.904;8.110;2024-03-23T14:17:34;7.25;;;2.38;;
21771;SDS011;11047;47.904;8.110;2024-03-23T14:20:01;6.57;;;2.25;;
21771;SDS011;11047;47.904;8.110;2024-03-23T14:22:30;3.42;;;1.27;;
21771;SDS011;11047;47.904;8.110;2024-03-23T14:24:57;6.28;;;1.90;;
21771;SDS011;11047;47.904;8.110;2024-03-23T14:27:23;6.35;;;1.38;;
21771;SDS011;11047;47.904;8.110;2024-03-23T14:29:51;3.30;;;1.48;;
21771;SDS011;11047;47.904;8.110;2024-03-23T14:32:17;5.93;;;2.58;;
21771;SDS011;11047;47.904;8.110;2024-03-23T14:34:44;10.52;;;1.70;;
21771;SDS011;11047;47.904;8.110;2024-03-23T14:37:10;4.15;;;2.10;;
21771;SDS011;11047;47.904;8.110;2024-03-23T14:39:37;8.57;;;2.28;;
21771;SDS011;11047;47.904;8.110;2024-03-23T14:42:04;6.10;;;1.75;;
21771;SDS011;11047;47.904;8.110;2024-03-23T14:44:33;3.42;;;1.58;;
21771;SDS011;11047;47.904;8.110;2024-03-23T14:47:00;5.45;;;1.30;;
21771;SDS011;11047;47.904;8.110;2024-03-23T14:49:27;3.92;;;1.25;;
21771;SDS011;11047;47.904;8.110;2024-03-23T14:51:53;9.23;;;2.40;;
21771;SDS011;11047;47.904;8.110;2024-03-23T14:54:20;3.83;;;1.15;;
21771;SDS011;11047;47.904;8.110;2024-03-23T14:56:46;4.68;;;1.05;;
21771;SDS011;11047;47.904;8.110;2024-03-23T14:59:13;4.68;;;1.30;;
21771;SDS011;11047;47.904;8.110;2024-03-23T15:01:39;3.83;;;1.20;;
21771;SDS011;11047;47.904;8.110;2024-03-23T15:04:08;2.08;;;0.98;;
21771;SDS011;11047;47.904;8.110;2024-03-23T15:06:33;4.30;;;1.30;;
21771;SDS011;11047;47.904;8.110;2024-03-23T15:09:01;6.82;;;1.55;;
21771;SDS011;11047;47.904;8.110;2024-03-23T15:11:27;3.88;;;0.98;;
21771;SDS011;11047;47.904;8.110;2024-03-23T15:13:53;5.78;;;1.48;;
21771;SDS011;11047;47.904;8.110;2024-03-23T15:16:20;2.35;;;1.35;;
21771;SDS011;11047;47.904;8.110;2024-03-23T15:18:47;6.18;;;1.55;;
21771;SDS011;11047;47.904;8.110;2024-03-23T15:21:15;3.55;;;1.00;;
21771;SDS011;11047;47.904;8.110;2024-03-23T15:23:45;3.83;;;1.00;;
21771;SDS011;11047;47.904;8.110;2024-03-23T15:26:11;6.18;;;1.60;;
21771;SDS011;11047;47.904;8.110;2024-03-23T15:28:38;6.15;;;1.05;;
21771;SDS011;11047;47.904;8.110;2024-03-23T15:31:06;5.40;;;0.82;;
21771;SDS011;11047;47.904;8.110;2024-03-23T15:33:34;3.10;;;1.35;;
21771;SDS011;11047;47.904;8.110;2024-03-23T15:36:00;4.53;;;1.17;;
21771;SDS011;11047;47.904;8.110;2024-03-23T15:38:29;6.32;;;1.50;;
21771;SDS011;11047;47.904;8.110;2024-03-23T15:40:56;4.40;;;1.30;;
21771;SDS011;11047;47.904;8.110;2024-03-23T15:43:23;5.60;;;1.10;;
21771;SDS011;11047;47.904;8.110;2024-03-23T15:45:55;5.00;;;1.00;;